createdAt,value
2022-11-10T00:02:08.238Z,94355.66
2022-11-10T00:04:35.930Z,94359.19
2022-11-10T00:07:03.836Z,94364.63
2022-11-10T00:09:31.415Z,94362.19
2022-11-10T00:12:00.329Z,94364.06
2022-11-10T00:14:45.339Z,94366.78
2022-11-10T00:17:12.994Z,94373.03
2022-11-10T00:19:40.579Z,94371.66
2022-11-10T00:22:08.132Z,94369.75
2022-11-10T00:24:35.728Z,94368.13
2022-11-10T00:27:04.976Z,94376.28
2022-11-10T00:29:32.553Z,94377.09
2022-11-10T00:32:00.154Z,94379.00
2022-11-10T00:34:27.736Z,94380.06
2022-11-10T00:36:55.296Z,94384.69
2022-11-10T00:39:22.855Z,94381.16
2022-11-10T00:41:50.556Z,94386.59
2022-11-10T00:44:19.533Z,94387.69
2022-11-10T00:46:47.087Z,94384.97
2022-11-10T00:49:14.641Z,94395.00
2022-11-10T00:51:42.237Z,94399.63
2022-11-10T00:54:10.033Z,94397.72
2022-11-10T00:56:37.631Z,94396.91
2022-11-10T00:59:05.259Z,94400.69
2022-11-10T01:01:34.226Z,94408.00
2022-11-10T01:04:01.848Z,94415.09
2022-11-10T01:06:29.491Z,94421.59
2022-11-10T01:08:57.140Z,94422.41
2022-11-10T01:11:26.051Z,94425.38
2022-11-10T01:13:54.490Z,94418.31
2022-11-10T01:16:22.977Z,94423.75
2022-11-10T01:18:51.923Z,94421.03
2022-11-10T01:21:19.511Z,94419.16
2022-11-10T01:23:47.066Z,94423.75
2022-11-10T01:26:14.844Z,94421.31
2022-11-10T01:28:42.466Z,94426.75
2022-11-10T01:31:12.572Z,94425.94
2022-11-10T01:33:40.146Z,94431.34
2022-11-10T01:36:09.851Z,94430.56
2022-11-10T01:38:39.065Z,94437.88
2022-11-10T01:41:08.932Z,94428.09
2022-11-10T01:43:36.525Z,94437.06
2022-11-10T01:46:04.457Z,94437.06
2022-11-10T01:48:33.933Z,94440.84
2022-11-10T01:51:02.965Z,94440.03
2022-11-10T01:53:32.504Z,94440.84
2022-11-10T01:56:00.057Z,94440.03
2022-11-10T01:58:29.825Z,94445.47
2022-11-10T02:00:57.474Z,94443.84
2022-11-10T02:03:30.291Z,94442.19
2022-11-10T02:05:57.834Z,94452.22
2022-11-10T02:08:25.497Z,94442.19
2022-11-10T02:10:54.437Z,94454.94
2022-11-10T02:13:22.345Z,94442.47
2022-11-10T02:15:50.198Z,94454.16
2022-11-10T02:18:17.752Z,94462.28
2022-11-10T02:20:46.655Z,94453.59
2022-11-10T02:23:15.702Z,94453.59
2022-11-10T02:25:43.293Z,94459.81
2022-11-10T02:28:10.959Z,94462.78
2022-11-10T02:30:38.553Z,94466.59
2022-11-10T02:33:06.164Z,94487.22
2022-11-10T02:35:33.763Z,94494.31
2022-11-10T02:38:02.708Z,94483.72
2022-11-10T02:40:30.252Z,94488.31
2022-11-10T02:42:57.834Z,94495.38
2022-11-10T02:45:25.502Z,94497.53
2022-11-10T02:47:53.044Z,94497.53
2022-11-10T02:50:20.623Z,94483.97
2022-11-10T02:52:48.188Z,94485.03
2022-11-10T02:55:17.572Z,94505.66
2022-11-10T02:57:45.186Z,94502.97
2022-11-10T03:00:13.714Z,94506.75
2022-11-10T03:02:41.399Z,94512.19
2022-11-10T03:05:09.149Z,94512.47
2022-11-10T03:07:36.701Z,94510.56
2022-11-10T03:10:04.815Z,94515.19
2022-11-10T03:12:33.895Z,94524.13
2022-11-10T03:15:01.520Z,94530.63
2022-11-10T03:17:29.284Z,94538.78
2022-11-10T03:19:56.856Z,94546.13
2022-11-10T03:22:24.399Z,94548.56
2022-11-10T03:24:51.980Z,94550.72
2022-11-10T03:27:19.551Z,94556.13
2022-11-10T03:29:48.461Z,94558.84
2022-11-10T03:32:16.024Z,94567.00
2022-11-10T03:34:43.563Z,94573.25
2022-11-10T03:37:11.202Z,94568.06
2022-11-10T03:39:38.764Z,94570.78
2022-11-10T03:42:06.415Z,94575.38
2022-11-10T03:44:33.943Z,94574.84
2022-11-10T03:47:03.932Z,94582.72
2022-11-10T03:49:31.541Z,94590.88
2022-11-10T03:51:59.100Z,94583.81
2022-11-10T03:54:26.745Z,94590.31
2022-11-10T03:56:54.361Z,94593.28
2022-11-10T03:59:21.912Z,94594.13
2022-11-10T04:01:50.108Z,94605.78
2022-11-10T04:04:32.969Z,94617.47
2022-11-10T04:07:17.863Z,94622.34
2022-11-10T04:09:45.424Z,94625.84
2022-11-10T04:12:30.777Z,94627.75
2022-11-10T04:15:16.376Z,94631.53
2022-11-10T04:17:49.788Z,94638.63
2022-11-10T04:20:18.815Z,94644.25
2022-11-10T04:23:03.807Z,94643.22
2022-11-10T04:25:51.326Z,94648.84
2022-11-10T04:28:18.880Z,94650.53
2022-11-10T04:30:46.425Z,94655.94
2022-11-10T04:33:13.974Z,94659.72
2022-11-10T04:35:42.921Z,94657.00
2022-11-10T04:38:10.552Z,94659.72
2022-11-10T04:40:38.107Z,94658.06
2022-11-10T04:43:05.964Z,94657.28
2022-11-10T04:45:33.855Z,94660.78
2022-11-10T04:48:01.416Z,94664.59
2022-11-10T04:50:30.172Z,94665.41
2022-11-10T04:52:59.158Z,94668.13
2022-11-10T04:55:27.002Z,94670.00
2022-11-10T04:57:54.571Z,94670.00
2022-11-10T05:00:22.263Z,94671.91
2022-11-10T05:02:49.936Z,94672.72
2022-11-10T05:05:17.979Z,94678.16
2022-11-10T05:07:48.540Z,94675.44
2022-11-10T05:10:17.622Z,94672.16
2022-11-10T05:12:45.335Z,94682.22
2022-11-10T05:15:13.183Z,94679.22
2022-11-10T05:17:40.842Z,94676.78
2022-11-10T05:20:09.715Z,94681.13
2022-11-10T05:22:37.309Z,94679.50
2022-11-10T05:25:05.088Z,94689.28
2022-11-10T05:27:34.077Z,94696.59
2022-11-10T05:30:01.644Z,94697.41
2022-11-10T05:32:29.417Z,94709.34
2022-11-10T05:34:57.011Z,94717.50
2022-11-10T05:37:24.604Z,94722.09
2022-11-10T05:39:52.159Z,94725.88
2022-11-10T05:42:19.714Z,94733.19
2022-11-10T05:44:48.632Z,94729.66
2022-11-10T05:47:16.173Z,94734.84
2022-11-10T05:49:43.720Z,94744.03
2022-11-10T05:52:11.264Z,94743.25
2022-11-10T05:54:38.860Z,94746.75
2022-11-10T05:57:06.526Z,94753.25
2022-11-10T05:59:34.197Z,94757.88
2022-11-10T06:02:03.135Z,94766.03
2022-11-10T06:04:30.727Z,94766.81
2022-11-10T06:06:58.436Z,94766.03
2022-11-10T06:09:25.996Z,94768.97
2022-11-10T06:11:53.603Z,94777.69
2022-11-10T06:14:21.158Z,94784.19
2022-11-10T06:16:48.730Z,94796.13
2022-11-10T06:19:17.637Z,94798.84
2022-11-10T06:21:45.202Z,94801.53
2022-11-10T06:24:12.913Z,94811.31
2022-11-10T06:26:40.505Z,94809.69
2022-11-10T06:29:08.073Z,94820.53
2022-11-10T06:31:35.654Z,94819.72
2022-11-10T06:34:03.244Z,94836.81
2022-11-10T06:36:32.365Z,94828.94
2022-11-10T06:38:59.948Z,94830.81
2022-11-10T06:41:27.497Z,94827.31
2022-11-10T06:43:56.002Z,94838.16
2022-11-10T06:46:23.567Z,94845.22
2022-11-10T06:48:51.236Z,94849.03
2022-11-10T06:51:18.905Z,94859.88
2022-11-10T06:53:48.469Z,94862.59
2022-11-10T06:56:16.335Z,94865.31
2022-11-10T06:58:43.972Z,94869.91
2022-11-10T07:01:11.605Z,94877.19
2022-11-10T07:03:58.582Z,94878.03
2022-11-10T07:06:27.654Z,94884.53
2022-11-10T07:08:56.604Z,94887.00
2022-11-10T07:11:24.181Z,94896.19
2022-11-10T07:13:51.727Z,94898.91
2022-11-10T07:16:24.220Z,94901.06
2022-11-10T07:18:52.080Z,94904.59
2022-11-10T07:21:19.611Z,94906.47
2022-11-10T07:23:47.226Z,94911.91
2022-11-10T07:26:16.107Z,94923.59
2022-11-10T07:28:43.796Z,94914.63
2022-11-10T07:31:11.723Z,94931.72
2022-11-10T07:33:39.266Z,94927.38
2022-11-10T07:36:07.254Z,94922.75
2022-11-10T07:38:34.980Z,94933.88
2022-11-10T07:41:02.581Z,94934.69
2022-11-10T07:43:31.530Z,94930.59
2022-11-10T07:45:59.738Z,94936.84
2022-11-10T07:48:27.303Z,94943.09
2022-11-10T07:50:54.844Z,94946.03
2022-11-10T07:53:22.901Z,94954.19
2022-11-10T07:55:50.660Z,94956.06
2022-11-10T07:58:18.780Z,94957.41
2022-11-10T08:00:48.003Z,94965.53
2022-11-10T08:03:16.441Z,94960.34
2022-11-10T08:05:44.121Z,94966.63
2022-11-10T08:08:11.712Z,94970.41
2022-11-10T08:10:39.672Z,94964.16
2022-11-10T08:13:08.474Z,94963.06
2022-11-10T08:15:36.083Z,94967.69
2022-11-10T08:18:05.936Z,94971.22
2022-11-10T08:20:33.890Z,94964.16
2022-11-10T08:23:02.482Z,94966.06
2022-11-10T08:25:34.896Z,94968.75
2022-11-10T08:28:04.121Z,94975.84
2022-11-10T08:30:31.800Z,94975.84
2022-11-10T08:33:01.466Z,94978.28
2022-11-10T08:35:31.380Z,94980.75
2022-11-10T08:37:59.002Z,94976.13
2022-11-10T08:40:28.254Z,94978.59
2022-11-10T08:42:59.248Z,94988.94
2022-11-10T08:45:26.902Z,94989.78
2022-11-10T08:47:59.112Z,94993.31
2022-11-10T08:50:26.815Z,94999.06
2022-11-10T08:52:55.862Z,95002.63
2022-11-10T08:55:23.472Z,95004.00
2022-11-10T08:57:51.045Z,95000.81
2022-11-10T09:00:20.863Z,95000.81
2022-11-10T09:02:48.480Z,95008.44
2022-11-10T09:05:16.292Z,95010.88
2022-11-10T09:07:45.023Z,95020.66
2022-11-10T09:10:14.074Z,95026.72
2022-11-10T09:12:41.718Z,95028.94
2022-11-10T09:15:10.117Z,95034.94
2022-11-10T09:17:37.746Z,95038.22
2022-11-10T09:20:06.335Z,95042.56
2022-11-10T09:22:35.352Z,95047.75
2022-11-10T09:25:02.999Z,95056.47
2022-11-10T09:27:32.402Z,95064.09
2022-11-10T09:29:59.989Z,95064.69
2022-11-10T09:32:27.589Z,95062.78
2022-11-10T09:34:55.128Z,95061.72
2022-11-10T09:37:22.680Z,95059.81
2022-11-10T09:39:50.239Z,95056.06
2022-11-10T09:42:37.710Z,95074.22
2022-11-10T09:45:07.828Z,95069.88
2022-11-10T09:47:56.667Z,95059.00
2022-11-10T09:50:30.785Z,95071.75
2022-11-10T09:52:58.344Z,95074.72
2022-11-10T09:55:30.942Z,95082.31
2022-11-10T09:57:59.886Z,95096.97
2022-11-10T10:00:27.463Z,95098.59
2022-11-10T10:02:57.212Z,95109.47
2022-11-10T10:05:35.876Z,95098.59
2022-11-10T10:08:04.141Z,95096.97
2022-11-10T10:10:34.575Z,95111.34
2022-11-10T10:13:12.523Z,95105.91
2022-11-10T10:15:44.496Z,95108.06
2022-11-10T10:18:19.935Z,95099.66
2022-11-10T10:20:53.324Z,95103.44
2022-11-10T10:23:40.676Z,95098.00
2022-11-10T10:26:13.100Z,95101.53
2022-11-10T10:28:42.977Z,95087.97
2022-11-10T10:31:14.711Z,95086.66
2022-11-10T10:33:42.381Z,95093.75
2022-11-10T10:36:11.418Z,95091.59
2022-11-10T10:38:39.139Z,95087.81
2022-11-10T10:41:13.207Z,95099.22
2022-11-10T10:43:43.052Z,95101.94
2022-11-10T10:46:12.635Z,95095.44
2022-11-10T10:48:40.224Z,95100.88
2022-11-10T10:51:07.832Z,95100.31
2022-11-10T10:53:45.611Z,95100.53
2022-11-10T10:56:17.038Z,95106.81
2022-11-10T10:58:52.396Z,95105.97
2022-11-10T11:01:23.136Z,95113.31
2022-11-10T11:03:51.380Z,95108.69
2022-11-10T11:06:20.574Z,95121.47
2022-11-10T11:08:59.218Z,95111.66
2022-11-10T11:11:28.673Z,95116.25
2022-11-10T11:14:16.724Z,95120.88
2022-11-10T11:16:48.702Z,95114.94
2022-11-10T11:19:16.448Z,95120.94
2022-11-10T11:21:50.157Z,95128.59
2022-11-10T11:24:21.974Z,95134.13
2022-11-10T11:26:52.393Z,95139.56
2022-11-10T11:29:44.023Z,95146.13
2022-11-10T11:32:25.744Z,95147.53
2022-11-10T11:34:57.840Z,95147.53
2022-11-10T11:37:27.860Z,95143.16
2022-11-10T11:40:01.201Z,95140.44
2022-11-10T11:42:39.291Z,95132.53
2022-11-10T11:45:16.847Z,95119.19
2022-11-10T11:47:53.172Z,95128.41
2022-11-10T11:50:25.603Z,95124.06
2022-11-10T11:52:58.787Z,95132.22
2022-11-10T11:55:32.181Z,95129.75
2022-11-10T11:58:07.683Z,95127.28
2022-11-10T12:00:40.832Z,95130.25
2022-11-10T12:03:27.032Z,95137.34
2022-11-10T12:05:59.247Z,95131.66
2022-11-10T12:08:33.350Z,95129.75
2022-11-10T12:11:04.808Z,95127.84
2022-11-10T12:13:39.127Z,95126.78
2022-11-10T12:16:13.946Z,95127.63
2022-11-10T12:18:49.731Z,95130.91
2022-11-10T12:21:24.173Z,95135.03
2022-11-10T12:24:00.159Z,95121.19
2022-11-10T12:26:34.579Z,95117.38
2022-11-10T12:29:05.969Z,95109.00
2022-11-10T12:31:35.960Z,95115.25
2022-11-10T12:34:06.371Z,95109.84
2022-11-10T12:36:33.921Z,95107.13
2022-11-10T12:39:04.460Z,95106.84
2022-11-10T12:41:36.198Z,95110.41
2022-11-10T12:44:07.438Z,95107.69
2022-11-10T12:46:36.374Z,95103.91
2022-11-10T12:49:08.941Z,95103.91
2022-11-10T12:51:40.056Z,95110.97
2022-11-10T12:54:16.304Z,95106.34
2022-11-10T12:56:46.196Z,95108.81
2022-11-10T12:59:28.675Z,95109.91
2022-11-10T13:02:01.806Z,95108.81
2022-11-10T13:04:29.438Z,95109.66
2022-11-10T13:06:57.725Z,95099.59
2022-11-10T13:09:26.344Z,95103.97
2022-11-10T13:12:16.862Z,95103.97
2022-11-10T13:14:44.533Z,95112.09
2022-11-10T13:17:52.354Z,95119.44
2022-11-10T13:20:49.023Z,95122.97
2022-11-10T13:23:26.968Z,95113.75
2022-11-10T13:25:56.397Z,95114.81
2022-11-10T13:28:58.816Z,95112.94
2022-11-10T13:31:39.748Z,95119.19
2022-11-10T13:34:10.930Z,95114.59
2022-11-10T13:36:39.105Z,95113.50
2022-11-10T13:39:23.879Z,95118.94
2022-11-10T13:41:51.950Z,95120.81
2022-11-10T13:44:24.400Z,95119.75
2022-11-10T13:47:04.095Z,95124.94
2022-11-10T13:49:48.632Z,95121.66
2022-11-10T13:52:17.017Z,95117.03
2022-11-10T13:55:01.021Z,95115.38
2022-11-10T13:57:30.306Z,95108.06
2022-11-10T13:59:59.388Z,95111.59
2022-11-10T14:03:01.679Z,95104.03
2022-11-10T14:06:08.501Z,95103.22
2022-11-10T14:08:39.385Z,95107.81
2022-11-10T14:11:12.747Z,95102.38
2022-11-10T14:13:42.550Z,95105.38
2022-11-10T14:16:14.972Z,95099.09
2022-11-10T14:18:44.096Z,95099.09
2022-11-10T14:21:13.501Z,95109.16
2022-11-10T14:23:44.724Z,95116.47
2022-11-10T14:26:15.852Z,95113.75
2022-11-10T14:28:43.407Z,95124.03
2022-11-10T14:31:12.317Z,95125.69
2022-11-10T14:33:39.923Z,95132.19
2022-11-10T14:36:08.899Z,95131.38
2022-11-10T14:38:37.938Z,95137.88
2022-11-10T14:41:06.635Z,95138.69
2022-11-10T14:43:35.120Z,95133.50
2022-11-10T14:46:03.162Z,95128.91
2022-11-10T14:48:31.715Z,95142.50
2022-11-10T14:51:02.788Z,95149.00
2022-11-10T14:53:31.929Z,95147.34
2022-11-10T14:56:01.363Z,95149.00
2022-11-10T14:58:32.119Z,95145.44
2022-11-10T15:00:59.675Z,95151.16
2022-11-10T15:03:31.912Z,95154.09
2022-11-10T15:05:59.478Z,95150.56
2022-11-10T15:08:27.184Z,95157.06
2022-11-10T15:10:56.206Z,95157.88
2022-11-10T15:13:37.076Z,95160.84
2022-11-10T15:16:26.645Z,95163.00
2022-11-10T15:18:55.367Z,95160.28
2022-11-10T15:21:23.726Z,95155.91
2022-11-10T15:23:54.021Z,95153.19
2022-11-10T15:26:22.980Z,95152.63
2022-11-10T15:28:51.908Z,95153.47
2022-11-10T15:31:23.210Z,95147.19
2022-11-10T15:33:52.235Z,95150.16
2022-11-10T15:36:28.679Z,95155.56
2022-11-10T15:39:04.115Z,95164.78
2022-11-10T15:41:32.092Z,95166.72
2022-11-10T15:44:13.768Z,95168.59
2022-11-10T15:46:41.444Z,95166.13
2022-11-10T15:49:11.508Z,95166.13
2022-11-10T15:51:39.044Z,95173.69
2022-11-10T15:54:10.152Z,95168.25
2022-11-10T15:56:37.744Z,95170.97
2022-11-10T15:59:06.676Z,95178.88
2022-11-10T16:01:34.322Z,95182.44
2022-11-10T16:04:01.953Z,95188.66
2022-11-10T16:06:30.590Z,95192.22
2022-11-10T16:08:58.312Z,95193.03
2022-11-10T16:11:26.059Z,95204.72
2022-11-10T16:13:53.687Z,95216.66
2022-11-10T16:16:23.955Z,95207.44
2022-11-10T16:18:51.658Z,95214.50
2022-11-10T16:21:20.400Z,95211.81
2022-11-10T16:23:48.012Z,95205.28
2022-11-10T16:26:16.396Z,95212.38
2022-11-10T16:28:44.271Z,95217.81
2022-11-10T16:31:11.924Z,95224.66
2022-11-10T16:33:40.879Z,95226.63
2022-11-10T16:36:13.635Z,95229.97
2022-11-10T16:38:41.221Z,95233.94
2022-11-10T16:41:12.352Z,95233.78
2022-11-10T16:43:39.945Z,95242.09
2022-11-10T16:46:17.285Z,95251.09
2022-11-10T16:48:46.381Z,95260.75
2022-11-10T16:51:14.239Z,95264.38
2022-11-10T16:53:41.836Z,95273.94
2022-11-10T16:56:13.812Z,95277.81
2022-11-10T16:58:41.429Z,95282.75
2022-11-10T17:01:12.471Z,95280.34
2022-11-10T17:03:43.026Z,95285.31
2022-11-10T17:06:13.468Z,95287.28
2022-11-10T17:08:41.347Z,95286.03
2022-11-10T17:11:09.009Z,95299.91
2022-11-10T17:13:36.798Z,95295.88
2022-11-10T17:16:05.777Z,95299.44
2022-11-10T17:18:33.405Z,95302.72
2022-11-10T17:21:01.257Z,95303.81
2022-11-10T17:23:31.477Z,95302.72
2022-11-10T17:25:59.353Z,95298.38
2022-11-10T17:28:26.960Z,95307.34
2022-11-10T17:30:55.305Z,95303.81
2022-11-10T17:33:23.179Z,95307.34
2022-11-10T17:35:51.755Z,95319.84
2022-11-10T17:38:22.080Z,95311.13
2022-11-10T17:40:51.538Z,95308.97
2022-11-10T17:43:19.487Z,95320.69
2022-11-10T17:45:47.263Z,95327.22
2022-11-10T17:48:15.211Z,95320.69
2022-11-10T17:50:43.545Z,95321.50
2022-11-10T17:53:16.995Z,95327.78
2022-11-10T17:55:44.704Z,95323.16
2022-11-10T17:58:13.623Z,95326.72
2022-11-10T18:00:41.377Z,95334.88
2022-11-10T18:03:12.821Z,95339.47
2022-11-10T18:05:40.657Z,95339.78
2022-11-10T18:08:08.244Z,95349.03
2022-11-10T18:10:35.880Z,95353.97
2022-11-10T18:13:03.459Z,95356.44
2022-11-10T18:15:32.411Z,95346.97
2022-11-10T18:18:01.167Z,95357.91
2022-11-10T18:20:28.998Z,95354.31
2022-11-10T18:22:56.726Z,95358.09
2022-11-10T18:25:24.312Z,95358.94
2022-11-10T18:27:52.041Z,95364.38
2022-11-10T18:30:19.887Z,95371.19
2022-11-10T18:32:48.916Z,95375.06
2022-11-10T18:35:17.711Z,95379.44
2022-11-10T18:37:45.465Z,95377.53
2022-11-10T18:40:14.613Z,95369.69
2022-11-10T18:42:42.207Z,95366.75
2022-11-10T18:45:11.090Z,95353.94
2022-11-10T18:47:38.706Z,95344.69
2022-11-10T18:50:09.429Z,95346.34
2022-11-10T18:52:37.145Z,95349.06
2022-11-10T18:55:04.917Z,95346.09
2022-11-10T18:57:32.484Z,95349.63
2022-11-10T19:00:00.053Z,95346.44
2022-11-10T19:02:27.640Z,95339.91
2022-11-10T19:04:55.279Z,95343.19
2022-11-10T19:07:24.232Z,95343.44
2022-11-10T19:09:51.854Z,95348.63
2022-11-10T19:12:25.412Z,95353.81
2022-11-10T19:14:54.273Z,95349.22
2022-11-10T19:17:21.908Z,95353.56
2022-11-10T19:19:54.994Z,95355.22
2022-11-10T19:22:27.131Z,95344.91
2022-11-10T19:25:07.665Z,95340.28
2022-11-10T19:27:35.557Z,95349.78
2022-11-10T19:30:03.181Z,95349.22
2022-11-10T19:32:30.916Z,95351.94
2022-11-10T19:34:58.484Z,95349.97
2022-11-10T19:37:32.022Z,95353.19
2022-11-10T19:40:01.792Z,95350.97
2022-11-10T19:42:29.383Z,95357.50
2022-11-10T19:44:57.879Z,95353.03
2022-11-10T19:47:25.690Z,95348.63
2022-11-10T19:49:53.321Z,95339.28
2022-11-10T19:52:20.940Z,95341.13
2022-11-10T19:54:49.917Z,95343.25
2022-11-10T19:57:17.545Z,95340.47
2022-11-10T19:59:45.131Z,95345.84
2022-11-10T20:02:13.570Z,95353.41
2022-11-10T20:05:01.288Z,95355.00
2022-11-10T20:07:46.638Z,95359.28
2022-11-10T20:10:15.708Z,95360.59
2022-11-10T20:12:43.227Z,95361.09
2022-11-10T20:15:11.668Z,95362.69
2022-11-10T20:17:39.233Z,95374.88
2022-11-10T20:20:07.602Z,95369.94
2022-11-10T20:22:35.200Z,95373.13
2022-11-10T20:25:02.778Z,95382.34
2022-11-10T20:27:31.694Z,95382.81
2022-11-10T20:29:59.296Z,95380.09
2022-11-10T20:32:27.024Z,95369.72
2022-11-10T20:34:54.735Z,95369.16
2022-11-10T20:37:22.346Z,95361.22
2022-11-10T20:39:49.915Z,95362.31
2022-11-10T20:42:17.450Z,95368.25
2022-11-10T20:44:46.388Z,95355.97
2022-11-10T20:47:13.996Z,95359.16
2022-11-10T20:49:41.598Z,95362.13
2022-11-10T20:52:09.151Z,95364.28
2022-11-10T20:54:36.693Z,95369.97
2022-11-10T20:57:04.326Z,95375.63
2022-11-10T20:59:36.102Z,95385.09
2022-11-10T21:02:06.677Z,95381.81
2022-11-10T21:04:36.860Z,95384.75
2022-11-10T21:07:08.130Z,95392.31
2022-11-10T21:09:35.820Z,95387.97
2022-11-10T21:12:21.077Z,95389.03
2022-11-10T21:14:48.720Z,95386.56
2022-11-10T21:17:18.049Z,95386.81
2022-11-10T21:19:45.644Z,95387.03
2022-11-10T21:22:13.226Z,95386.47
2022-11-10T21:24:40.829Z,95381.88
2022-11-10T21:27:10.264Z,95373.94
2022-11-10T21:29:37.873Z,95370.66
2022-11-10T21:32:05.892Z,95367.94
2022-11-10T21:34:35.607Z,95367.09
2022-11-10T21:37:03.253Z,95370.88
2022-11-10T21:39:30.848Z,95377.41
2022-11-10T21:41:58.451Z,95372.22
2022-11-10T21:44:26.061Z,95381.19
2022-11-10T21:46:53.773Z,95377.66
2022-11-10T21:49:21.368Z,95383.31
2022-11-10T21:51:50.427Z,95386.88
2022-11-10T21:54:18.101Z,95383.56
2022-11-10T21:56:45.720Z,95376.00
2022-11-10T21:59:13.420Z,95371.03
2022-11-10T22:01:41.019Z,95374.81
2022-11-10T22:04:08.644Z,95372.09
2022-11-10T22:06:54.003Z,95379.44
2022-11-10T22:09:36.881Z,95375.91
2022-11-10T22:12:22.584Z,95383.22
2022-11-10T22:15:07.991Z,95382.41
2022-11-10T22:17:53.110Z,95381.59
2022-11-10T22:20:20.741Z,95379.91
2022-11-10T22:22:50.085Z,95378.25
2022-11-10T22:25:19.217Z,95377.47
2022-11-10T22:27:46.754Z,95386.66
2022-11-10T22:30:14.631Z,95381.25
2022-11-10T22:32:42.281Z,95387.47
2022-11-10T22:35:30.297Z,95382.31
2022-11-10T22:37:57.933Z,95380.66
2022-11-10T22:40:44.295Z,95376.31
2022-11-10T22:43:29.690Z,95374.63
2022-11-10T22:45:57.304Z,95376.53
2022-11-10T22:48:27.679Z,95374.88
2022-11-10T22:50:55.710Z,95383.03
2022-11-10T22:53:23.926Z,95390.91
2022-11-10T22:55:53.251Z,95379.47
2022-11-10T22:58:20.837Z,95380.56
2022-11-10T23:00:48.588Z,95375.13
2022-11-10T23:03:16.389Z,95369.69
2022-11-10T23:05:43.947Z,95368.03
2022-11-10T23:08:11.532Z,95377.25
2022-11-10T23:10:39.141Z,95372.66
2022-11-10T23:13:08.280Z,95371.03
2022-11-10T23:15:35.852Z,95374.53
2022-11-10T23:18:06.657Z,95370.19
2022-11-10T23:20:34.680Z,95374.78
2022-11-10T23:23:02.284Z,95371.25
2022-11-10T23:25:29.874Z,95361.47
2022-11-10T23:28:17.566Z,95366.03
2022-11-10T23:30:45.229Z,95371.47
2022-11-10T23:33:12.791Z,95370.66
2022-11-10T23:35:40.392Z,95371.72
2022-11-10T23:38:07.987Z,95375.25
2022-11-10T23:40:35.611Z,95380.69
2022-11-10T23:43:03.301Z,95385.53
2022-11-10T23:46:00.009Z,95387.19
2022-11-10T23:48:19.979Z,95382.03
2022-11-10T23:50:47.710Z,95367.59
2022-11-10T23:53:15.488Z,95364.88
2022-11-10T23:55:43.217Z,95372.19
2022-11-10T23:58:10.870Z,95373.25
